Time;durP1;ratioP1;P1;durP2;ratioP2;P2;SDS_P1;SDS_P2;PMS_P1;PMS_P2;Temp;Humidity;BMP_temperature;BMP_pressure;BME280_temperature;BME280_humidity;BME280_pressure;Samples;Min_cycle;Max_cycle;Signal;HPM_P1;HPM_P2
2024/01/18 00:01:55;;;;;;;;;;;;;;;-144.99;100.00;52725.31;4963015;28;19981;-76
2024/01/18 00:04:21;;;;;;;;;;;;;;;-144.99;100.00;52753.84;4970197;28;20416;-77
2024/01/18 00:06:48;;;;;;;;;;;;;;;-144.99;100.00;52717.16;4970369;28;19930;-75
2024/01/18 00:09:16;;;;;;;;;;;;;;;-144.99;100.00;52672.31;4971169;28;20401;-75
2024/01/18 00:11:42;;;;;;;;;;;;;;;-144.99;100.00;52713.09;4969613;28;20436;-75
2024/01/18 00:14:09;;;;;;;;;;;;;;;-144.99;100.00;52749.78;4969943;28;20236;-75
2024/01/18 00:16:36;;;;;;;;;;;;;;;-144.99;100.00;52713.09;4970653;28;19969;-75
2024/01/18 00:19:03;;;;;;;;;;;;;;;-144.99;100.00;52696.78;4971301;28;20239;-75
2024/01/18 00:21:29;;;;;;;;;;;;;;;-144.99;100.00;52768.13;4971204;28;19950;-75
2024/01/18 00:23:56;;;;;;;;;;;;;;;-144.99;100.00;52715.13;4970975;28;20429;-77
2024/01/18 00:26:23;;;;;;;;;;;;;;;-144.99;100.00;52706.97;4966438;28;20021;-76
2024/01/18 00:28:50;;;;;;;;;;;;;;;-144.99;100.00;52725.31;4963657;28;19936;-75
2024/01/18 00:31:16;;;;;;;;;;;;;;;-144.99;100.00;52749.78;4971966;28;19996;-76
2024/01/18 00:33:43;;;;;;;;;;;;;;;-144.99;100.00;52721.22;4626200;28;10000380;-76
2024/01/18 00:36:10;;;;;;;;;;;;;;;-144.99;100.00;52717.16;4970878;28;20008;-75
2024/01/18 00:38:36;;;;;;;;;;;;;;;-144.99;100.00;52731.44;4970762;28;19949;-75
2024/01/18 00:41:03;;;;;;;;;;;;;;;-144.99;100.00;52698.81;4970578;28;20424;-77
2024/01/18 00:43:31;;;;;;;;;;;;;;;-144.99;100.00;52700.84;4971090;28;20306;-81
2024/01/18 00:46:02;;;;;;;;;;;;;;;-144.99;100.00;52745.69;4967953;28;20038;-75
2024/01/18 00:48:28;;;;;;;;;;;;;;;-144.99;100.00;52709.00;4972525;28;19962;-77
2024/01/18 00:50:55;;;;;;;;;;;;;;;-144.99;100.00;52727.34;4972911;28;19980;-76
2024/01/18 00:53:21;;;;;;;;;;;;;;;-144.99;100.00;52713.09;4973494;28;19973;-75
2024/01/18 00:55:48;;;;;;;;;;;;;;;-144.99;100.00;52753.84;4972414;28;19933;-78
2024/01/18 00:58:14;;;;;;;;;;;;;;;-144.99;100.00;52717.16;4970599;28;20053;-77
2024/01/18 01:00:42;;;;;;;;;;;;;;;-144.99;100.00;52741.63;4965554;28;19937;-78
2024/01/18 01:03:08;;;;;;;;;;;;;;;-144.99;100.00;52700.84;4972768;28;19993;-76
2024/01/18 01:05:35;;;;;;;;;;;;;;;-144.99;100.00;52766.09;4971560;28;20020;-76
2024/01/18 01:08:01;;;;;;;;;;;;;;;-144.99;100.00;52704.94;4973006;28;19926;-76
2024/01/18 01:10:28;;;;;;;;;;;;;;;-144.99;100.00;52725.31;4974051;28;19965;-76
2024/01/18 01:12:54;;;;;;;;;;;;;;;-144.99;100.00;52725.31;4971358;28;19930;-78
2024/01/18 01:15:21;;;;;;;;;;;;;;;-144.99;100.00;52721.22;4972517;28;19932;-79
2024/01/18 01:17:49;;;;;;;;;;;;;;;-144.99;100.00;52709.00;4964366;28;19934;-77
2024/01/18 01:20:15;;;;;;;;;;;;;;;-144.99;100.00;52721.22;4974350;28;20363;-79
2024/01/18 01:22:42;;;;;;;;;;;;;;;-144.99;100.00;52686.59;4973641;28;20421;-80
2024/01/18 01:25:09;;;;;;;;;;;;;;;-144.99;100.00;52745.69;4969872;28;20014;-79
2024/01/18 01:27:35;;;;;;;;;;;;;;;-144.99;100.00;52737.53;4965817;28;19926;-79
2024/01/18 01:30:02;;;;;;;;;;;;;;;-144.99;100.00;52692.69;4973771;28;19926;-79
2024/01/18 01:32:28;;;;;;;;;;;;;;;-144.99;100.00;52725.31;4974469;28;19926;-78
2024/01/18 01:34:56;;;;;;;;;;;;;;;-144.99;100.00;52749.78;4974711;28;20072;-79
2024/01/18 01:37:22;;;;;;;;;;;;;;;-144.99;100.00;52717.16;4976067;28;19930;-80
2024/01/18 01:39:49;;;;;;;;;;;;;;;-144.99;100.00;52717.16;4973981;28;20414;-79
2024/01/18 01:42:15;;;;;;;;;;;;;;;-144.99;100.00;52741.63;4978496;28;19933;-76
2024/01/18 01:44:42;;;;;;;;;;;;;;;-144.99;100.00;52704.94;4972257;28;19926;-77
2024/01/18 01:47:09;;;;;;;;;;;;;;;-144.99;100.00;52717.16;4984128;28;19968;-81
2024/01/18 01:49:35;;;;;;;;;;;;;;;-144.99;100.00;52688.63;4991943;28;19914;-79
2024/01/18 01:52:04;;;;;;;;;;;;;;;-144.99;100.00;52680.47;4995928;28;20046;-81
2024/01/18 01:54:32;;;;;;;;;;;;;;;-144.99;100.00;52725.31;4990238;28;19926;-77
2024/01/18 01:57:01;;;;;;;;;;;;;;;-144.99;100.00;52729.38;4972304;28;20023;-77
2024/01/18 01:59:27;;;;;;;;;;;;;;;-144.99;100.00;52713.09;4970649;28;20006;-77
2024/01/18 02:01:54;;;;;;;;;;;;;;;-144.99;100.00;52739.56;4972029;28;20068;-78
2024/01/18 02:04:21;;;;;;;;;;;;;;;-144.99;100.00;52721.22;4974733;28;19930;-77
2024/01/18 02:06:51;;;;;;;;;;;;;;;-144.99;100.00;52721.22;4974657;28;19981;-78
2024/01/18 02:09:19;;;;;;;;;;;;;;;-144.99;100.00;52713.09;4969911;28;19941;-78
2024/01/18 02:11:46;;;;;;;;;;;;;;;-144.99;100.00;52709.00;4963316;28;19926;-76
2024/01/18 02:14:13;;;;;;;;;;;;;;;-144.99;100.00;52737.53;4971468;28;19930;-77
2024/01/18 02:16:39;;;;;;;;;;;;;;;-144.99;100.00;52729.38;4970554;28;20020;-78
2024/01/18 02:19:06;;;;;;;;;;;;;;;-144.99;100.00;52749.78;4968194;28;20390;-77
2024/01/18 02:21:33;;;;;;;;;;;;;;;-144.99;100.00;52682.50;4964107;28;19926;-77
2024/01/18 02:24:03;;;;;;;;;;;;;;;-144.99;100.00;52731.44;4970480;28;19980;-76
2024/01/18 02:26:31;;;;;;;;;;;;;;;-144.99;100.00;52700.84;4964872;28;19935;-77
2024/01/18 02:28:57;;;;;;;;;;;;;;;-144.99;100.00;52723.28;4969286;28;19930;-77
2024/01/18 02:31:23;;;;;;;;;;;;;;;-144.99;100.00;52741.63;4964501;28;19937;-77
2024/01/18 02:33:50;;;;;;;;;;;;;;;-144.99;100.00;52729.38;4957978;28;20020;-78
2024/01/18 02:36:16;;;;;;;;;;;;;;;-144.99;100.00;52713.09;4964648;28;20020;-77
2024/01/18 02:38:43;;;;;;;;;;;;;;;-144.99;100.00;52762.00;4967560;28;20016;-79
2024/01/18 02:41:09;;;;;;;;;;;;;;;-144.99;100.00;52709.00;4964781;28;19957;-77
2024/01/18 02:43:37;;;;;;;;;;;;;;;-144.99;100.00;52709.00;4967451;28;19980;-78
2024/01/18 02:46:04;;;;;;;;;;;;;;;-144.99;100.00;52713.09;4962855;28;19926;-79
2024/01/18 02:48:30;;;;;;;;;;;;;;;-144.99;100.00;52747.72;4966844;28;20025;-74
2024/01/18 02:50:57;;;;;;;;;;;;;;;-144.99;100.00;52674.34;4969754;28;20334;-77
2024/01/18 02:53:24;;;;;;;;;;;;;;;-144.99;100.00;52684.53;4972342;28;19930;-79
2024/01/18 02:55:50;;;;;;;;;;;;;;;-144.99;100.00;52688.63;4972470;28;19980;-77
2024/01/18 02:58:17;;;;;;;;;;;;;;;-144.99;100.00;52704.94;4974105;28;19989;-79
2024/01/18 03:00:44;;;;;;;;;;;;;;;-144.99;100.00;52759.97;4970146;28;20025;-78
2024/01/18 03:03:12;;;;;;;;;;;;;;;-144.99;100.00;52711.03;4965677;28;20021;-78
2024/01/18 03:05:38;;;;;;;;;;;;;;;-144.99;100.00;52733.47;4964363;28;19930;-76
2024/01/18 03:08:05;;;;;;;;;;;;;;;-144.99;100.00;52762.00;4970161;28;19965;-76
2024/01/18 03:10:31;;;;;;;;;;;;;;;-144.99;100.00;52700.84;4969856;28;20294;-75
2024/01/18 03:12:58;;;;;;;;;;;;;;;-144.99;100.00;52721.22;4969666;28;19977;-75
2024/01/18 03:15:24;;;;;;;;;;;;;;;-144.99;100.00;52706.97;4964733;28;20402;-75
2024/01/18 03:17:52;;;;;;;;;;;;;;;-144.99;100.00;52762.00;4973027;28;20098;-75
2024/01/18 03:20:18;;;;;;;;;;;;;;;-144.99;100.00;52745.69;4983448;28;19929;-76
2024/01/18 03:22:45;;;;;;;;;;;;;;;-144.99;100.00;52739.56;4975133;28;19961;-75
2024/01/18 03:25:12;;;;;;;;;;;;;;;-144.99;100.00;52729.38;4966149;28;19960;-75
2024/01/18 03:27:39;;;;;;;;;;;;;;;-144.99;100.00;52696.78;4968748;28;19937;-71
2024/01/18 03:30:07;;;;;;;;;;;;;;;-144.99;100.00;52688.63;4969044;28;20091;-73
2024/01/18 03:32:33;;;;;;;;;;;;;;;-144.99;100.00;52653.97;4968893;28;19927;-75
2024/01/18 03:35:01;;;;;;;;;;;;;;;-144.99;100.00;52698.81;4968299;28;20493;-77
2024/01/18 03:37:27;;;;;;;;;;;;;;;-144.99;100.00;52737.53;4966426;28;20048;-75
2024/01/18 03:39:54;;;;;;;;;;;;;;;-144.99;100.00;52688.63;4967790;28;20291;-76
2024/01/18 03:42:21;;;;;;;;;;;;;;;-144.99;100.00;52704.94;4971433;28;19949;-74
2024/01/18 03:44:48;;;;;;;;;;;;;;;-144.99;100.00;52737.53;4969565;28;20062;-73
2024/01/18 03:47:14;;;;;;;;;;;;;;;-144.99;100.00;52733.47;4952304;28;20064;-77
2024/01/18 03:49:42;;;;;;;;;;;;;;;-144.99;100.00;52704.94;4968171;28;20017;-78
2024/01/18 03:52:10;;;;;;;;;;;;;;;-144.99;100.00;52729.38;4969516;28;19930;-79
2024/01/18 03:54:36;;;;;;;;;;;;;;;-144.99;100.00;52725.31;4969322;28;20009;-76
2024/01/18 03:57:03;;;;;;;;;;;;;;;-144.99;100.00;52688.63;4967857;28;20429;-76
2024/01/18 03:59:29;;;;;;;;;;;;;;;-144.99;100.00;52727.34;4973532;28;20365;-76
2024/01/18 04:01:56;;;;;;;;;;;;;;;-144.99;100.00;52733.47;4969150;28;19962;-77
2024/01/18 04:04:23;;;;;;;;;;;;;;;-144.99;100.00;52688.63;4972020;28;19926;-78
2024/01/18 04:06:49;;;;;;;;;;;;;;;-144.99;100.00;52704.94;4971642;28;19941;-81
2024/01/18 04:09:17;;;;;;;;;;;;;;;-144.99;100.00;52780.34;4992330;28;19929;-83
2024/01/18 04:11:44;;;;;;;;;;;;;;;-144.99;100.00;52721.22;4991416;28;19976;-82
2024/01/18 04:14:10;;;;;;;;;;;;;;;-144.99;100.00;52709.00;4993449;28;19925;-80
2024/01/18 04:16:37;;;;;;;;;;;;;;;-144.99;100.00;52713.09;4975270;28;19981;-77
2024/01/18 04:19:04;;;;;;;;;;;;;;;-144.99;100.00;52704.94;4968134;28;20291;-74
2024/01/18 04:21:30;;;;;;;;;;;;;;;-144.99;100.00;52721.22;4968416;28;20005;-73
2024/01/18 04:23:57;;;;;;;;;;;;;;;-144.99;100.00;52741.63;4970184;28;19980;-76
2024/01/18 04:26:27;;;;;;;;;;;;;;;-144.99;100.00;52717.16;4966840;28;19937;-78
2024/01/18 04:28:54;;;;;;;;;;;;;;;-144.99;100.00;52741.63;4964093;28;19958;-76
2024/01/18 04:31:20;;;;;;;;;;;;;;;-144.99;100.00;52741.63;4972946;28;19926;-75
2024/01/18 04:33:47;;;;;;;;;;;;;;;-144.99;100.00;52713.09;4972522;28;20040;-76
2024/01/18 04:36:13;;;;;;;;;;;;;;;-144.99;100.00;52704.94;4973026;28;20021;-78
2024/01/18 04:38:40;;;;;;;;;;;;;;;-144.99;100.00;52723.28;4973542;28;19969;-74
2024/01/18 04:41:06;;;;;;;;;;;;;;;-144.99;100.00;52676.38;4974221;28;19930;-78
2024/01/18 04:43:34;;;;;;;;;;;;;;;-144.99;100.00;52692.69;4968326;28;19926;-75
2024/01/18 04:46:01;;;;;;;;;;;;;;;-144.99;100.00;52727.34;4972989;28;20008;-75
2024/01/18 04:48:27;;;;;;;;;;;;;;;-144.99;100.00;52719.19;4976337;28;19926;-76
2024/01/18 04:50:53;;;;;;;;;;;;;;;-144.99;100.00;52692.69;4971853;28;20013;-76
2024/01/18 04:53:20;;;;;;;;;;;;;;;-144.99;100.00;52704.94;4969865;28;19954;-74
2024/01/18 04:55:46;;;;;;;;;;;;;;;-144.99;100.00;52709.00;4968488;28;20012;-73
2024/01/18 04:58:13;;;;;;;;;;;;;;;-144.99;100.00;52737.53;4977689;28;20437;-73
2024/01/18 05:00:41;;;;;;;;;;;;;;;-144.99;100.00;52729.38;4970986;28;20458;-73
2024/01/18 05:03:08;;;;;;;;;;;;;;;-144.99;100.00;52717.16;4953128;28;19926;-74
2024/01/18 05:05:35;;;;;;;;;;;;;;;-144.99;100.00;52692.69;4964542;28;19927;-74
2024/01/18 05:08:01;;;;;;;;;;;;;;;-144.99;100.00;52717.16;4971055;28;19933;-74
2024/01/18 05:10:27;;;;;;;;;;;;;;;-144.99;100.00;52717.16;4971388;28;20041;-76
2024/01/18 05:12:54;;;;;;;;;;;;;;;-144.99;100.00;52745.69;4971152;28;19930;-77
2024/01/18 05:15:23;;;;;;;;;;;;;;;-144.99;100.00;52719.19;4969390;28;19926;-77
2024/01/18 05:17:51;;;;;;;;;;;;;;;-144.99;100.00;52747.72;4968043;28;19926;-77
2024/01/18 05:20:18;;;;;;;;;;;;;;;-144.99;100.00;52762.00;4966268;28;19977;-78
2024/01/18 05:22:44;;;;;;;;;;;;;;;-144.99;100.00;52715.13;4968694;28;20306;-77
2024/01/18 05:25:11;;;;;;;;;;;;;;;-144.99;100.00;52725.31;4969601;28;19966;-78
2024/01/18 05:27:37;;;;;;;;;;;;;;;-144.99;100.00;52709.00;4969562;28;19926;-77
2024/01/18 05:30:05;;;;;;;;;;;;;;;-144.99;100.00;52692.69;4971171;28;19952;-78
2024/01/18 05:32:31;;;;;;;;;;;;;;;-144.99;100.00;52721.22;4971162;28;19926;-77
2024/01/18 05:35:01;;;;;;;;;;;;;;;-144.99;100.00;52729.38;4970379;28;20482;-71
2024/01/18 05:37:27;;;;;;;;;;;;;;;-144.99;100.00;52741.63;4970734;28;19926;-77
2024/01/18 05:39:54;;;;;;;;;;;;;;;-144.99;100.00;52709.00;4971452;28;20014;-75
2024/01/18 05:42:22;;;;;;;;;;;;;;;-144.99;100.00;52688.63;4969395;28;19937;-76
2024/01/18 05:44:49;;;;;;;;;;;;;;;-144.99;100.00;52757.94;4970686;28;20310;-76
2024/01/18 05:47:15;;;;;;;;;;;;;;;-144.99;100.00;52721.22;4971203;28;19926;-76
2024/01/18 05:49:42;;;;;;;;;;;;;;;-144.99;100.00;52696.78;4970994;28;19932;-76
2024/01/18 05:52:10;;;;;;;;;;;;;;;-144.99;100.00;52721.22;4969943;28;19937;-75
2024/01/18 05:54:36;;;;;;;;;;;;;;;-144.99;100.00;52704.94;4969174;28;20321;-74
2024/01/18 05:57:03;;;;;;;;;;;;;;;-144.99;100.00;52709.00;4968087;28;20009;-76
2024/01/18 05:59:29;;;;;;;;;;;;;;;-144.99;100.00;52651.94;4964360;28;19930;-73
2024/01/18 06:01:56;;;;;;;;;;;;;;;-144.99;100.00;52696.78;4969792;28;20014;-76
2024/01/18 06:04:24;;;;;;;;;;;;;;;-144.99;100.00;52702.88;4970026;28;19988;-76
2024/01/18 06:06:50;;;;;;;;;;;;;;;-144.99;100.00;52733.47;4965999;28;20339;-75
2024/01/18 06:09:18;;;;;;;;;;;;;;;-144.99;100.00;52721.22;4971217;28;19930;-75
2024/01/18 06:11:45;;;;;;;;;;;;;;;-144.99;100.00;52709.00;4970930;28;19949;-75
2024/01/18 06:14:11;;;;;;;;;;;;;;;-144.99;100.00;52717.16;4969566;28;19941;-71
2024/01/18 06:16:38;;;;;;;;;;;;;;;-144.99;100.00;52729.38;4954932;28;20430;-72
2024/01/18 06:19:04;;;;;;;;;;;;;;;-144.99;100.00;52692.69;4968586;28;19926;-71
2024/01/18 06:21:31;;;;;;;;;;;;;;;-144.99;100.00;52713.09;4969565;28;20409;-74
2024/01/18 06:23:58;;;;;;;;;;;;;;;-144.99;100.00;52721.22;4968648;28;19926;-71
2024/01/18 06:26:26;;;;;;;;;;;;;;;-144.99;100.00;52745.69;4962991;28;19978;-71
2024/01/18 06:28:52;;;;;;;;;;;;;;;-144.99;100.00;52731.44;4969312;28;19930;-72
2024/01/18 06:31:22;;;;;;;;;;;;;;;-144.99;100.00;52721.22;4956139;28;20127;-72
2024/01/18 06:33:48;;;;;;;;;;;;;;;-144.99;100.00;52717.16;4978860;28;19930;-73
2024/01/18 06:36:15;;;;;;;;;;;;;;;-144.99;100.00;52672.31;4974595;28;19969;-71
2024/01/18 06:38:41;;;;;;;;;;;;;;;-144.99;100.00;52711.03;4969751;28;19936;-72
2024/01/18 06:41:10;;;;;;;;;;;;;;;-144.99;100.00;52713.09;4969504;28;19926;-72
2024/01/18 06:43:38;;;;;;;;;;;;;;;-144.99;100.00;52725.31;4970093;28;19989;-72
2024/01/18 06:46:04;;;;;;;;;;;;;;;-144.99;100.00;52723.28;4961091;28;19940;-71
2024/01/18 06:48:31;;;;;;;;;;;;;;;-144.99;100.00;52696.78;4964819;28;19984;-73
2024/01/18 06:50:57;;;;;;;;;;;;;;;-144.99;100.00;52749.78;4961661;28;20442;-72
2024/01/18 06:53:24;;;;;;;;;;;;;;;-144.99;100.00;52721.22;4970087;28;20013;-71
2024/01/18 06:55:50;;;;;;;;;;;;;;;-144.99;100.00;52717.16;4969029;28;20017;-71
2024/01/18 06:58:17;;;;;;;;;;;;;;;-144.99;100.00;52709.00;4967043;28;19940;-73
2024/01/18 07:00:44;;;;;;;;;;;;;;;-144.99;100.00;52700.84;4968263;28;20552;-72
2024/01/18 07:03:12;;;;;;;;;;;;;;;-144.99;100.00;52745.69;4969301;28;20029;-74
2024/01/18 07:05:38;;;;;;;;;;;;;;;-144.99;100.00;52709.00;4969133;28;20479;-72
2024/01/18 07:08:05;;;;;;;;;;;;;;;-144.99;100.00;52713.09;4967997;28;19985;-75
2024/01/18 07:10:32;;;;;;;;;;;;;;;-144.99;100.00;52725.31;4969460;28;19926;-75
2024/01/18 07:12:58;;;;;;;;;;;;;;;-144.99;100.00;52713.09;4965950;28;19966;-74
2024/01/18 07:15:25;;;;;;;;;;;;;;;-144.99;100.00;52741.63;4968991;28;19926;-74
2024/01/18 07:17:52;;;;;;;;;;;;;;;-144.99;100.00;52713.09;4968410;28;20017;-73
2024/01/18 07:20:19;;;;;;;;;;;;;;;-144.99;100.00;52713.09;4968665;28;20025;-73
2024/01/18 07:22:45;;;;;;;;;;;;;;;-144.99;100.00;52709.00;4967332;28;20008;-74
2024/01/18 07:25:12;;;;;;;;;;;;;;;-144.99;100.00;52721.22;4968283;28;19930;-75
2024/01/18 07:27:39;;;;;;;;;;;;;;;-144.99;100.00;52725.31;4963210;28;19937;-72
2024/01/18 07:30:06;;;;;;;;;;;;;;;-144.99;100.00;52729.38;4967385;28;20017;-73
2024/01/18 07:32:33;;;;;;;;;;;;;;;-144.99;100.00;52700.84;4968417;28;20017;-73
2024/01/18 07:35:01;;;;;;;;;;;;;;;-144.99;100.00;52719.19;4966588;28;20006;-74
2024/01/18 07:37:28;;;;;;;;;;;;;;;-144.99;100.00;52717.16;4968907;28;19966;-74
2024/01/18 07:39:54;;;;;;;;;;;;;;;-144.99;100.00;52717.16;4969254;28;19942;-72
2024/01/18 07:42:21;;;;;;;;;;;;;;;-144.99;100.00;52721.22;4969116;28;20262;-75
2024/01/18 07:44:47;;;;;;;;;;;;;;;-144.99;100.00;52684.53;4966735;28;19981;-74
2024/01/18 07:47:14;;;;;;;;;;;;;;;-144.99;100.00;52729.38;4967425;28;19930;-72
2024/01/18 07:49:45;;;;;;;;;;;;;;;-144.99;100.00;52696.78;4965270;28;19953;-75
2024/01/18 07:52:13;;;;;;;;;;;;;;;-144.99;100.00;52725.31;4968656;28;20337;-72
2024/01/18 07:54:39;;;;;;;;;;;;;;;-144.99;100.00;52731.44;4967679;28;19930;-71
2024/01/18 07:57:06;;;;;;;;;;;;;;;-144.99;100.00;52696.78;4969439;28;20023;-73
2024/01/18 07:59:32;;;;;;;;;;;;;;;-144.99;100.00;52721.22;4972627;28;19930;-73
2024/01/18 08:01:59;;;;;;;;;;;;;;;-144.99;100.00;52700.84;4971906;28;20036;-73
2024/01/18 08:04:26;;;;;;;;;;;;;;;-144.99;100.00;52700.84;4972981;28;19957;-75
2024/01/18 08:06:52;;;;;;;;;;;;;;;-144.99;100.00;52717.16;4968890;28;19926;-74
2024/01/18 08:09:21;;;;;;;;;;;;;;;-144.99;100.00;52688.63;4972313;28;20017;-74
2024/01/18 08:11:47;;;;;;;;;;;;;;;-144.99;100.00;52709.00;4969758;28;19965;-75
2024/01/18 08:14:14;;;;;;;;;;;;;;;-144.99;100.00;52700.84;4971864;28;19926;-74
2024/01/18 08:16:40;;;;;;;;;;;;;;;-144.99;100.00;52700.84;4968903;28;20005;-71
2024/01/18 08:19:07;;;;;;;;;;;;;;;-144.99;100.00;52717.16;4972315;28;19981;-74
2024/01/18 08:21:33;;;;;;;;;;;;;;;-144.99;100.00;52700.84;4971410;28;19926;-75
2024/01/18 08:24:00;;;;;;;;;;;;;;;-144.99;100.00;52696.78;4971886;28;19926;-75
2024/01/18 08:26:29;;;;;;;;;;;;;;;-144.99;100.00;52680.47;4967428;28;20101;-75
2024/01/18 08:28:55;;;;;;;;;;;;;;;-144.99;100.00;52688.63;4969720;28;19926;-74
2024/01/18 08:31:22;;;;;;;;;;;;;;;-144.99;100.00;52684.53;4971776;28;19977;-75
2024/01/18 08:33:48;;;;;;;;;;;;;;;-144.99;100.00;52698.81;4973425;28;20033;-74
2024/01/18 08:36:14;;;;;;;;;;;;;;;-144.99;100.00;52688.63;4971989;28;20041;-74
2024/01/18 08:38:41;;;;;;;;;;;;;;;-144.99;100.00;52704.94;4969405;28;19930;-73
2024/01/18 08:41:07;;;;;;;;;;;;;;;-144.99;100.00;52676.38;4971874;28;19926;-74
2024/01/18 08:43:35;;;;;;;;;;;;;;;-144.99;100.00;52702.88;4972037;28;19926;-73
2024/01/18 08:46:06;;;;;;;;;;;;;;;-144.99;100.00;52668.22;4970956;28;20358;-75
2024/01/18 08:48:33;;;;;;;;;;;;;;;-144.99;100.00;52680.47;4970260;28;20041;-74
2024/01/18 08:50:59;;;;;;;;;;;;;;;-144.99;100.00;52664.16;4969513;28;19960;-72
2024/01/18 08:53:26;;;;;;;;;;;;;;;-144.99;100.00;52684.53;4971470;28;19926;-74
2024/01/18 08:55:52;;;;;;;;;;;;;;;-144.99;100.00;52635.63;4971239;28;20465;-75
2024/01/18 08:58:18;;;;;;;;;;;;;;;-144.99;100.00;52717.16;4977909;28;19956;-74
2024/01/18 09:00:46;;;;;;;;;;;;;;;-144.99;100.00;52664.16;4968890;28;19981;-74
2024/01/18 09:03:13;;;;;;;;;;;;;;;-144.99;100.00;52651.94;4971645;28;19980;-74
2024/01/18 09:05:39;;;;;;;;;;;;;;;-144.99;100.00;52647.84;4970918;28;19937;-71
2024/01/18 09:08:06;;;;;;;;;;;;;;;-144.99;100.00;52664.16;4971207;28;19992;-73
2024/01/18 09:10:32;;;;;;;;;;;;;;;-144.99;100.00;52709.00;4970051;28;19965;-74
2024/01/18 09:12:59;;;;;;;;;;;;;;;-144.99;100.00;52668.22;4969567;28;21865;-73
2024/01/18 09:15:26;;;;;;;;;;;;;;;-144.99;100.00;52664.16;4970808;28;20029;-74
2024/01/18 09:17:54;;;;;;;;;;;;;;;-144.99;100.00;52662.13;4969100;28;20017;-74
2024/01/18 09:20:21;;;;;;;;;;;;;;;-144.99;100.00;52631.53;4969926;28;19936;-74
2024/01/18 09:22:47;;;;;;;;;;;;;;;-144.99;100.00;52668.22;4969415;28;20336;-73
2024/01/18 09:25:13;;;;;;;;;;;;;;;-144.99;100.00;52643.78;4970833;28;20365;-71
2024/01/18 09:27:40;;;;;;;;;;;;;;;-144.99;98.83;52635.63;4964027;28;19925;-71
2024/01/18 09:30:08;;;;;;;;;;;;;;;-144.99;95.68;52643.78;4982742;28;19957;-74
2024/01/18 09:32:35;;;;;;;;;;;;;;;-144.99;94.55;52635.63;4987024;28;20366;-73
2024/01/18 09:35:03;;;;;;;;;;;;;;;-144.99;90.79;52619.31;4986265;28;19926;-75
2024/01/18 09:37:29;;;;;;;;;;;;;;;-144.99;90.53;52621.34;4987295;28;20046;-74
2024/01/18 09:39:56;;;;;;;;;;;;;;;-144.99;88.83;52627.47;4970648;28;19926;-73
2024/01/18 09:42:23;;;;;;;;;;;;;;;-144.99;87.74;52647.84;4969097;28;20464;-75
2024/01/18 09:44:50;;;;;;;;;;;;;;;-144.99;86.14;52590.78;4968837;28;19934;-76
2024/01/18 09:47:17;;;;;;;;;;;;;;;-144.99;85.56;52621.34;4969817;28;19930;-73
2024/01/18 09:49:44;;;;;;;;;;;;;;;-144.99;83.69;52639.69;4966569;28;19926;-74
2024/01/18 09:52:12;;;;;;;;;;;;;;;-144.99;83.79;52631.53;4970740;28;19930;-75
2024/01/18 09:54:38;;;;;;;;;;;;;;;-144.99;83.77;52627.47;4968242;28;19926;-75
2024/01/18 09:57:07;;;;;;;;;;;;;;;-144.99;83.76;52635.63;4968764;28;20317;-74
2024/01/18 09:59:35;;;;;;;;;;;;;;;-144.99;83.44;52600.97;4974033;28;19972;-70
2024/01/18 10:02:02;;;;;;;;;;;;;;;-144.99;81.53;52635.63;4969922;28;19933;-73
2024/01/18 10:04:30;;;;;;;;;;;;;;;-144.99;80.45;52623.38;4968314;28;20029;-73
2024/01/18 10:06:57;;;;;;;;;;;;;;;-144.99;79.38;52631.53;4969447;28;19936;-73
2024/01/18 10:09:25;;;;;;;;;;;;;;;-144.99;78.17;52596.88;4970229;28;20360;-75
2024/01/18 10:11:51;;;;;;;;;;;;;;;-144.99;76.12;52611.16;4968604;28;20008;-75
2024/01/18 10:14:17;;;;;;;;;;;;;;;-144.99;74.48;52550.00;4970451;28;20223;-72
2024/01/18 10:16:44;;;;;;;;;;;;;;;-144.99;73.47;52607.09;4966216;28;19965;-75
2024/01/18 10:19:14;;;;;;;;;;;;;;;-144.99;72.83;52578.53;4970103;28;20022;-74
2024/01/18 10:21:41;;;;;;;;;;;;;;;-144.99;70.83;52541.84;4969982;28;19981;-72
2024/01/18 10:24:10;;;;;;;;;;;;;;;-144.99;70.58;52545.94;4970016;28;20065;-75
2024/01/18 10:26:38;;;;;;;;;;;;;;;-144.99;70.63;52529.63;4961293;28;19930;-74
2024/01/18 10:29:06;;;;;;;;;;;;;;;-144.99;69.30;52521.47;4965190;28;20433;-76
2024/01/18 10:31:32;;;;;;;;;;;;;;;-144.99;68.14;52515.34;4968656;28;19972;-75
2024/01/18 10:33:58;;;;;;;;;;;;;;;-144.99;67.84;52537.78;4969469;28;19970;-75
2024/01/18 10:36:25;;;;;;;;;;;;;;;-144.99;67.18;52497.00;4966559;28;19973;-75
2024/01/18 10:38:52;;;;;;;;;;;;;;;-144.99;66.39;52460.31;4968962;28;19973;-75
2024/01/18 10:41:19;;;;;;;;;;;;;;;-144.99;65.12;52464.41;4947188;28;19933;-76
2024/01/18 10:43:47;;;;;;;;;;;;;;;-144.99;64.43;52423.63;4968833;28;19984;-75
2024/01/18 10:46:15;;;;;;;;;;;;;;;-144.99;63.69;52458.28;4968063;28;19926;-76
2024/01/18 10:48:44;;;;;;;;;;;;;;;-144.99;64.01;52427.72;4963333;28;19981;-75
2024/01/18 10:51:11;;;;;;;;;;;;;;;-144.99;63.53;52517.41;4969203;28;19933;-74
2024/01/18 10:53:38;;;;;;;;;;;;;;;-144.99;66.78;52586.69;4969254;28;20302;-75
2024/01/18 10:56:05;;;;;;;;;;;;;;;-144.99;68.75;52558.16;4960572;28;19926;-74
2024/01/18 10:58:32;;;;;;;;;;;;;;;-144.99;70.79;52527.59;4966075;28;20400;-76
2024/01/18 11:01:00;;;;;;;;;;;;;;;-144.99;69.94;52527.59;4967975;28;19926;-76
2024/01/18 11:03:27;;;;;;;;;;;;;;;-144.99;69.27;52460.31;4970254;28;20017;-76
2024/01/18 11:05:54;;;;;;;;;;;;;;;-144.99;67.82;52439.94;4983853;28;19926;-77
2024/01/18 11:08:22;;;;;;;;;;;;;;;-144.99;66.77;52395.09;4981809;28;20068;-78
2024/01/18 11:10:49;;;;;;;;;;;;;;;-144.99;65.72;52415.47;4977594;28;19972;-76
2024/01/18 11:13:16;;;;;;;;;;;;;;;-144.99;64.59;52386.94;4981533;28;19964;-76
2024/01/18 11:15:44;;;;;;;;;;;;;;;-144.99;64.16;52362.50;4980158;28;19926;-76
2024/01/18 11:18:11;;;;;;;;;;;;;;;-144.99;63.18;52333.94;4978871;28;19926;-74
2024/01/18 11:20:53;;;;;;;;;;;;;;;-144.99;62.30;52342.09;4981193;28;19965;-78
2024/01/18 11:23:22;;;;;;;;;;;;;;;-144.99;60.59;52333.94;4976476;28;19926;-76
2024/01/18 11:25:49;;;;;;;;;;;;;;;-144.99;59.96;52321.72;4978441;28;19930;-76
2024/01/18 11:28:21;;;;;;;;;;;;;;;-144.99;58.93;52364.53;4979633;28;19930;-76
2024/01/18 11:30:48;;;;;;;;;;;;;;;-144.99;58.52;52254.47;4975423;28;20001;-76
2024/01/18 11:33:16;;;;;;;;;;;;;;;-144.99;58.52;52268.72;4980874;28;19985;-76
2024/01/18 11:35:42;;;;;;;;;;;;;;;-144.99;57.71;52256.50;4981218;28;19930;-76
2024/01/18 11:38:19;;;;;;;;;;;;;;;-144.99;57.50;52329.88;4980504;28;19970;-77
2024/01/18 11:40:46;;;;;;;;;;;;;;;-144.99;58.30;52448.09;4977943;28;19930;-75
2024/01/18 11:43:12;;;;;;;;;;;;;;;-144.99;59.63;52482.75;4978671;28;20081;-76
2024/01/18 11:45:39;;;;;;;;;;;;;;;-144.99;60.70;52346.19;4978493;28;19992;-76
2024/01/18 11:48:06;;;;;;;;;;;;;;;-144.99;60.81;52350.25;4975992;28;19926;-75
2024/01/18 11:50:33;;;;;;;;;;;;;;;-144.99;59.71;52331.91;4978493;28;20010;-76
2024/01/18 11:53:00;;;;;;;;;;;;;;;-144.99;59.15;52317.66;4979850;28;19934;-75
2024/01/18 11:55:30;;;;;;;;;;;;;;;-144.99;58.70;52305.41;4981185;28;19977;-77
2024/01/18 11:58:00;;;;;;;;;;;;;;;-144.99;58.09;52301.34;4977520;28;19956;-75
2024/01/18 12:00:26;;;;;;;;;;;;;;;-144.99;57.20;52248.34;4973288;28;19989;-76
2024/01/18 12:02:53;;;;;;;;;;;;;;;-144.99;56.63;52289.13;4975944;28;20336;-75
2024/01/18 12:05:19;;;;;;;;;;;;;;;-144.99;56.58;52303.38;4987855;28;19942;-73
2024/01/18 12:07:47;;;;;;;;;;;;;;;-144.99;56.69;52268.72;4989522;28;20189;-74
2024/01/18 12:10:14;;;;;;;;;;;;;;;-144.99;56.82;52293.19;4993102;28;19953;-75
2024/01/18 12:12:42;;;;;;;;;;;;;;;-144.99;56.39;52285.03;4983072;28;20350;-73
2024/01/18 12:15:09;;;;;;;;;;;;;;;-144.99;56.28;52280.97;4974370;28;19926;-75
2024/01/18 12:17:35;;;;;;;;;;;;;;;-144.99;56.04;52297.25;4974790;28;19996;-75
2024/01/18 12:20:02;;;;;;;;;;;;;;;-144.99;55.84;52227.97;4974635;28;20486;-75